Clinton Sherman Airport


Codes: KCSM/CSM
Name: Clinton Sherman Airport
City: Clinton
Country: United States
Elevation: 1922 ft.
Wikipedia:

Photos at Clinton Sherman Airport


   Photos courtesy of SpottingLog. You can add your own sightings and photos by signing up for a free trial today.



No photos found.

Weather at Clinton Sherman Airport


Time (UTC)DescriptionTempratureWindCloud coverageVisibilityPressureHumidity
26-Jun-2024 00:00Moderate Rain39°C18 mph, NW0%7649m1011hPa29%
26-Jun-2024 03:00Light Rain35°C9 mph, S20%10000m1010hPa43%
26-Jun-2024 06:00Few Clouds29°C11 mph, SE20%10000m1010hPa67%
26-Jun-2024 09:00Clear Sky23°C4 mph, S0%10000m1008hPa86%
26-Jun-2024 12:00Clear Sky24°C4 mph, NW0%10000m1008hPa80%
26-Jun-2024 15:00Clear Sky32°C7 mph, N0%10000m1009hPa48%
26-Jun-2024 18:00Clear Sky38°C13 mph, NE0%10000m1008hPa28%
26-Jun-2024 21:00Clear Sky40°C16 mph, E1%10000m1007hPa22%
27-Jun-2024 00:00Clear Sky38°C16 mph, E1%10000m1006hPa20%
27-Jun-2024 03:00Clear Sky31°C16 mph, E0%10000m1008hPa47%
27-Jun-2024 06:00Scattered Clouds27°C13 mph, E39%10000m1010hPa74%
27-Jun-2024 09:00Scattered Clouds25°C13 mph, E34%10000m1009hPa82%
27-Jun-2024 12:00Broken Clouds24°C13 mph, E70%10000m1009hPa82%
27-Jun-2024 15:00Scattered Clouds29°C16 mph, E26%10000m1008hPa64%
27-Jun-2024 18:00Few Clouds37°C16 mph, SE22%10000m1005hPa34%
27-Jun-2024 21:00Overcast Clouds41°C16 mph, S96%10000m1002hPa21%
28-Jun-2024 00:00Overcast Clouds40°C20 mph, S88%10000m999hPa19%
28-Jun-2024 03:00Light Rain31°C7 mph, E97%10000m1002hPa44%
28-Jun-2024 06:00Overcast Clouds32°C22 mph, S98%10000m1002hPa39%
28-Jun-2024 09:00Scattered Clouds30°C22 mph, S42%10000m1001hPa45%
28-Jun-2024 12:00Broken Clouds29°C20 mph, SW72%10000m1002hPa43%
28-Jun-2024 15:00Overcast Clouds34°C25 mph, SW100%10000m1003hPa33%
28-Jun-2024 18:00Broken Clouds39°C22 mph, SW60%10000m1002hPa23%
28-Jun-2024 21:00Clear Sky42°C20 mph, SW4%10000m1000hPa19%
29-Jun-2024 00:00Few Clouds40°C22 mph, S12%10000m999hPa20%
29-Jun-2024 03:00Clear Sky35°C20 mph, SE0%10000m1002hPa27%
29-Jun-2024 06:00Few Clouds31°C20 mph, S12%10000m1005hPa42%
29-Jun-2024 09:00Light Rain28°C13 mph, S27%10000m1008hPa56%
29-Jun-2024 12:00Broken Clouds28°C13 mph, S53%10000m1011hPa61%
29-Jun-2024 15:00Broken Clouds32°C9 mph, S62%10000m1013hPa49%
29-Jun-2024 18:00Broken Clouds35°C9 mph, SE66%10000m1013hPa39%
29-Jun-2024 21:00Scattered Clouds39°C11 mph, SE34%10000m1011hPa28%
30-Jun-2024 00:00Heavy Intensity Rain25°C18 mph, NE67%10000m1014hPa87%
30-Jun-2024 03:00Heavy Intensity Rain23°C16 mph, NE100%10000m1016hPa87%
30-Jun-2024 06:00Light Rain24°C13 mph, NE100%10000m1018hPa83%
30-Jun-2024 09:00Overcast Clouds23°C11 mph, E100%10000m1018hPa93%
30-Jun-2024 12:00Overcast Clouds24°C7 mph, E100%10000m1019hPa91%
30-Jun-2024 15:00Overcast Clouds26°C9 mph, SE100%10000m1019hPa74%
30-Jun-2024 18:00Overcast Clouds34°C9 mph, SE100%10000m1017hPa41%
30-Jun-2024 21:00Overcast Clouds37°C13 mph, SE100%10000m1014hPa30%